Alamo, California
Current Conditions -  °F | °C
As of 3:53 PM on Monday 20 Oct 2014 (Local Time) from KCCR Reporting Station
Broken Clouds Broken Clouds  
Wind Chill: 21°   Ceiling: 6500
Heat Index: 21°   Visibility: 10mi
Dew Point: 11°   Wind: 14mph
Humidity: 53%   Direction: 240°WSW
Pressure: 29.95"   Gusts: 17mph
Location:  37.85°N, 122.03°W
Report Text: KCCR 202253Z 24012G15KT 10SM SCT039 BKN065 21/11 A2995 RMK AO2 SLP128 T02110111
Loading
Personal Weather Stations






























Interactive Weather Map
Tropical Storm Tracking
New forecast layout! Learn more

10-Day Weather Forecast

Advertisements
Track Severe Weather on mobile